Time;durP1;ratioP1;P1;durP2;ratioP2;P2;SDS_P1;SDS_P2;PMS_P1;PMS_P2;Temp;Humidity;BMP_temperature;BMP_pressure;BME280_temperature;BME280_humidity;BME280_pressure;Samples;Min_cycle;Max_cycle;Signal;HPM_P1;HPM_P2
2023/01/26 00:02:01;;;;;;;36.22;18.25;;;;;;;8.39;59.12;100686.81;4260596;33;33473;-79
2023/01/26 00:04:29;;;;;;;36.65;17.98;;;;;;;9.23;56.88;100678.59;4260404;33;34777;-84
2023/01/26 00:06:56;;;;;;;36.42;20.05;;;;;;;8.89;57.55;100679.78;4259577;33;34198;-81
2023/01/26 00:09:42;;;;;;;35.20;19.73;;;;;;;7.29;62.48;100673.16;4258074;33;33671;-80
2023/01/26 00:12:10;;;;;;;34.83;18.65;;;;;;;6.74;65.01;100671.75;4235779;33;30822;-83
2023/01/26 00:14:50;;;;;;;35.55;18.45;;;;;;;6.44;66.24;100683.22;4260434;33;33922;-81
2023/01/26 00:17:29;;;;;;;33.22;17.75;;;;;;;7.67;63.22;100672.44;4260498;33;33498;-81
2023/01/26 00:19:57;;;;;;;32.92;17.95;;;;;;;9.96;55.17;100663.28;4259074;33;33601;-81
2023/01/26 00:22:26;;;;;;;29.73;16.55;;;;;;;10.77;52.29;100654.28;4247463;33;34009;-81
2023/01/26 00:24:54;;;;;;;29.25;17.25;;;;;;;10.26;53.74;100663.34;4247463;33;34383;-81
2023/01/26 00:27:21;;;;;;;30.60;17.25;;;;;;;10.37;53.65;100648.47;4260866;33;33810;-81
2023/01/26 00:29:49;;;;;;;32.75;16.98;;;;;;;10.31;53.82;100656.75;4260639;33;34020;-81
2023/01/26 00:32:16;;;;;;;34.65;17.73;;;;;;;10.20;54.01;100652.62;4247698;33;33733;-79
2023/01/26 00:34:44;;;;;;;29.83;18.10;;;;;;;10.73;52.53;100656.63;4260627;33;34080;-79
2023/01/26 00:37:11;;;;;;;30.55;17.27;;;;;;;10.42;53.10;100645.34;4252203;33;33474;-80
2023/01/26 00:39:39;;;;;;;31.30;17.45;;;;;;;10.68;52.47;100653.75;4260457;33;33863;-81
2023/01/26 00:42:10;;;;;;;32.20;17.55;;;;;;;10.13;53.61;100646.19;4255872;33;33416;-81
2023/01/26 00:44:38;;;;;;;32.70;19.00;;;;;;;10.40;52.81;100652.12;4259900;33;32670;-80
2023/01/26 00:47:07;;;;;;;32.33;17.80;;;;;;;10.03;53.74;100654.19;4247684;33;33920;-78
2023/01/26 00:49:34;;;;;;;28.58;16.00;;;;;;;10.80;51.64;100649.28;4260344;33;34483;-79
2023/01/26 00:52:02;;;;;;;30.05;16.87;;;;;;;11.11;50.90;100644.94;4260231;33;33205;-80
2023/01/26 00:54:30;;;;;;;30.80;17.62;;;;;;;11.86;48.44;100646.44;4260594;33;33145;-79
2023/01/26 00:56:57;;;;;;;30.73;17.40;;;;;;;11.72;48.51;100642.22;4259330;33;34585;-81
2023/01/26 00:59:25;;;;;;;30.62;17.02;;;;;;;10.96;50.75;100634.59;4259243;33;33901;-78
2023/01/26 01:01:53;;;;;;;34.25;17.27;;;;;;;10.77;51.28;100641.31;4260203;33;33612;-80
2023/01/26 01:04:20;;;;;;;34.28;18.90;;;;;;;10.78;51.23;100635.34;4260874;33;34300;-81
2023/01/26 01:06:48;;;;;;;32.45;17.60;;;;;;;11.39;49.63;100637.88;4260327;33;33723;-79
2023/01/26 01:09:17;;;;;;;37.30;18.67;;;;;;;11.13;50.25;100628.66;4260359;33;34657;-82
2023/01/26 01:11:44;;;;;;;34.55;17.73;;;;;;;11.17;50.13;100635.78;4256606;33;33449;-81
2023/01/26 01:14:14;;;;;;;34.25;19.12;;;;;;;10.24;52.36;100633.87;4249170;33;33851;-80
2023/01/26 01:16:44;;;;;;;48.65;22.50;;;;;;;9.98;53.03;100628.00;4247391;33;33977;-82
2023/01/26 01:19:14;;;;;;;36.88;19.98;;;;;;;10.29;52.31;100634.16;4247323;33;33873;-80
2023/01/26 01:21:43;;;;;;;33.70;19.12;;;;;;;10.89;50.74;100622.09;4260190;33;34273;-80
2023/01/26 01:24:11;;;;;;;37.05;18.58;;;;;;;10.89;50.86;100624.69;4258461;33;33732;-82
2023/01/26 01:26:39;;;;;;;28.92;17.70;;;;;;;10.56;51.68;100622.84;4260310;33;33701;-80
2023/01/26 01:29:08;;;;;;;32.25;17.70;;;;;;;11.27;49.95;100621.62;4260266;33;33910;-80
2023/01/26 01:31:36;;;;;;;33.58;18.10;;;;;;;11.13;50.29;100615.69;4246893;33;33945;-79
2023/01/26 01:34:04;;;;;;;32.72;17.05;;;;;;;11.53;49.29;100620.47;4260074;33;34823;-79
2023/01/26 01:36:32;;;;;;;32.08;16.92;;;;;;;11.60;49.06;100607.00;4258733;33;33749;-82
2023/01/26 01:39:00;;;;;;;32.78;17.27;;;;;;;11.49;49.43;100613.34;4258770;33;34497;-82
2023/01/26 01:41:27;;;;;;;33.10;18.60;;;;;;;11.33;49.91;100605.53;4259412;33;33530;-79
2023/01/26 01:44:16;;;;;;;31.85;16.75;;;;;;;11.08;50.38;100614.53;4259372;33;32786;-83
2023/01/26 01:46:47;;;;;;;31.17;18.20;;;;;;;10.41;51.81;100612.50;4257065;33;34183;-82
2023/01/26 01:49:38;;;;;;;28.92;15.90;;;;;;;10.25;52.39;100604.59;4259752;33;33029;-79
2023/01/26 01:52:16;;;;;;;32.20;16.90;;;;;;;10.84;50.80;100602.81;4259152;33;33225;-81
2023/01/26 01:54:49;;;;;;;30.88;18.55;;;;;;;11.33;49.54;100600.34;4262097;33;34023;-83
2023/01/26 01:57:26;;;;;;;31.12;17.33;;;;;;;11.02;50.47;100607.31;4246980;33;34619;-80
2023/01/26 01:59:58;;;;;;;35.15;19.12;;;;;;;10.69;51.30;100603.72;4260121;33;34526;-83
2023/01/26 02:02:26;;;;;;;33.70;17.77;;;;;;;9.92;53.38;100600.88;4260153;33;34192;-83
2023/01/26 02:04:57;;;;;;;34.03;18.50;;;;;;;10.79;51.15;100595.66;4246986;33;33450;-80
2023/01/26 02:07:27;;;;;;;36.38;17.95;;;;;;;11.28;50.05;100587.13;4247185;33;34013;-82
2023/01/26 02:12:42;;;;;;;30.52;16.73;;;;;;;12.16;47.20;100583.97;4259655;33;33597;-78
2023/01/26 02:15:12;;;;;;;29.35;16.42;;;;;;;12.11;47.15;100575.03;4235234;33;33890;-82
2023/01/26 02:17:39;;;;;;;28.45;16.02;;;;;;;11.34;49.15;100576.19;4247068;33;35272;-80
2023/01/26 02:20:27;;;;;;;27.60;16.25;;;;;;;11.61;48.66;100575.06;4259439;33;35070;-81
2023/01/26 02:23:20;;;;;;;28.40;15.57;;;;;;;10.97;50.39;100568.97;4256544;33;33037;-80
2023/01/26 02:25:53;;;;;;;29.27;16.05;;;;;;;10.46;51.25;100571.31;4246456;33;33365;-80
2023/01/26 02:28:24;;;;;;;29.77;16.08;;;;;;;10.72;50.91;100569.28;4259557;33;33847;-79
2023/01/26 02:30:53;;;;;;;33.30;17.73;;;;;;;10.64;51.11;100563.69;4259289;33;32974;-83
2023/01/26 02:33:23;;;;;;;29.25;16.73;;;;;;;10.42;51.63;100567.66;4257262;33;33011;-81
2023/01/26 02:35:51;;;;;;;27.40;15.52;;;;;;;10.74;50.77;100560.81;4259295;33;34286;-79
2023/01/26 02:38:20;;;;;;;28.23;14.95;;;;;;;10.97;50.36;100553.41;4257619;33;34047;-80
2023/01/26 02:40:58;;;;;;;28.20;14.70;;;;;;;11.18;49.83;100544.25;4255174;33;33835;-79
2023/01/26 02:43:26;;;;;;;29.65;14.95;;;;;;;10.82;50.76;100543.13;4245491;33;32687;-81
2023/01/26 02:45:54;;;;;;;26.98;14.05;;;;;;;10.73;50.93;100537.41;4234126;33;34133;-79
2023/01/26 02:51:09;;;;;;;26.75;14.43;;;;;;;10.71;51.00;100539.91;4248433;33;33910;-79
2023/01/26 02:53:37;;;;;;;26.60;14.77;;;;;;;10.34;51.74;100531.78;4259103;33;33630;-82
2023/01/26 02:56:04;;;;;;;25.08;14.77;;;;;;;10.56;51.34;100524.38;4259317;33;33745;-81
2023/01/26 02:58:33;;;;;;;33.13;17.20;;;;;;;11.12;50.01;100517.97;4258772;33;33696;-81
2023/01/26 03:01:00;;;;;;;36.13;18.50;;;;;;;10.85;50.84;100517.34;4247962;33;33561;-81
2023/01/26 03:03:40;;;;;;;37.33;18.23;;;;;;;10.73;51.14;100517.56;4260790;33;34502;-81
2023/01/26 03:06:09;;;;;;;42.80;22.33;;;;;;;10.75;51.06;100507.28;4249681;33;34659;-82
2023/01/26 03:08:37;;;;;;;44.03;22.48;;;;;;;10.65;51.02;100503.31;4260773;33;34024;-81
2023/01/26 03:11:06;;;;;;;40.38;20.12;;;;;;;10.67;50.82;100505.97;4248159;33;33437;-82
2023/01/26 03:13:34;;;;;;;44.42;23.83;;;;;;;10.68;50.84;100505.16;4261230;33;34163;-83
2023/01/26 03:16:06;;;;;;;39.20;21.87;;;;;;;10.72;50.60;100505.44;4260941;33;33747;-81
2023/01/26 03:29:45;;;;;;;27.08;15.70;;;;;;;10.38;51.54;100495.75;4250034;33;33623;-81
2023/01/26 03:32:12;;;;;;;27.40;15.27;;;;;;;10.46;51.33;100482.34;4260801;33;33586;-81
2023/01/26 03:34:40;;;;;;;26.83;15.40;;;;;;;10.77;50.56;100491.00;4259790;33;33068;-80
2023/01/26 03:37:09;;;;;;;26.87;14.68;;;;;;;10.54;51.17;100483.66;4247952;33;33474;-80
2023/01/26 03:56:33;;;;;;;29.05;15.43;;;;;;;9.18;54.19;100465.44;4252308;33;33838;-81
2023/01/26 03:59:11;;;;;;;26.12;14.50;;;;;;;10.69;49.97;100463.78;4260836;33;35120;-83
2023/01/26 04:01:41;;;;;;;23.35;13.35;;;;;;;10.63;50.36;100464.34;4260896;33;33950;-82
2023/01/26 04:09:43;;;;;;;22.92;12.82;;;;;;;10.04;51.27;100460.16;4260436;33;34722;-79
2023/01/26 04:12:12;;;;;;;23.50;13.13;;;;;;;10.79;49.26;100455.69;4251714;33;33610;-81
2023/01/26 04:23:00;;;;;;;21.52;11.65;;;;;;;10.72;49.26;100450.09;4260970;33;34329;-81
2023/01/26 04:25:27;;;;;;;18.95;11.75;;;;;;;10.52;49.53;100443.84;4260491;33;33891;-82
2023/01/26 04:27:55;;;;;;;19.87;11.52;;;;;;;10.72;49.14;100442.31;4260329;33;33034;-82
2023/01/26 04:30:23;;;;;;;22.73;12.20;;;;;;;10.71;48.94;100444.03;4260980;33;35406;-78
2023/01/26 04:32:51;;;;;;;23.10;12.93;;;;;;;11.49;46.98;100447.31;4260720;33;34698;-82
2023/01/26 04:35:19;;;;;;;21.80;12.10;;;;;;;11.07;47.88;100446.84;4247790;33;33409;-80
2023/01/26 04:37:47;;;;;;;18.00;11.07;;;;;;;10.65;48.98;100435.94;4260506;33;34282;-82
2023/01/26 04:40:15;;;;;;;18.35;10.15;;;;;;;10.48;49.27;100434.13;4260099;33;33669;-82
2023/01/26 04:42:42;;;;;;;22.33;11.02;;;;;;;10.67;48.91;100438.62;4260846;33;33735;-81
2023/01/26 04:45:11;;;;;;;18.70;9.85;;;;;;;10.69;48.88;100437.00;4260628;33;34130;-82
2023/01/26 04:47:38;;;;;;;20.15;10.73;;;;;;;10.61;48.92;100434.00;4259993;33;33685;-80
2023/01/26 04:50:07;;;;;;;20.23;10.63;;;;;;;10.46;49.19;100427.97;4247189;33;34737;-83
2023/01/26 04:52:34;;;;;;;17.23;9.95;;;;;;;10.65;48.56;100430.75;4259798;33;33506;-81
2023/01/26 04:55:02;;;;;;;16.17;9.52;;;;;;;10.63;48.56;100430.66;4248211;33;33857;-82
2023/01/26 04:57:30;;;;;;;20.45;9.68;;;;;;;10.65;48.54;100433.34;4260316;33;32023;-81
2023/01/26 04:59:59;;;;;;;16.85;9.90;;;;;;;10.21;49.49;100427.44;4260537;33;34437;-81
2023/01/26 05:02:27;;;;;;;15.85;9.93;;;;;;;9.98;49.95;100423.56;4259886;33;33466;-79
2023/01/26 05:04:55;;;;;;;17.60;10.02;;;;;;;10.25;49.27;100425.94;4260373;33;34569;-82
2023/01/26 05:07:23;;;;;;;19.33;10.70;;;;;;;10.53;48.75;100430.09;4260264;33;33223;-81
2023/01/26 05:09:51;;;;;;;19.23;10.48;;;;;;;10.39;49.34;100425.03;4259647;33;33512;-81
2023/01/26 05:12:33;;;;;;;18.80;9.77;;;;;;;10.73;48.52;100434.66;4260176;33;34791;-80
2023/01/26 05:15:02;;;;;;;19.10;9.82;;;;;;;10.69;48.82;100432.69;4252974;33;33126;-80
2023/01/26 05:17:30;;;;;;;18.75;10.35;;;;;;;10.99;47.92;100429.97;4259670;33;33511;-82
2023/01/26 05:19:58;;;;;;;18.83;10.30;;;;;;;11.14;47.57;100428.19;4255848;33;34651;-80
2023/01/26 05:22:26;;;;;;;20.65;11.70;;;;;;;11.25;47.28;100430.47;4259730;33;33662;-79
2023/01/26 05:24:56;;;;;;;18.75;9.48;;;;;;;10.87;48.03;100427.59;4259485;33;31978;-82
2023/01/26 05:27:24;;;;;;;22.35;11.02;;;;;;;11.08;47.48;100433.03;4260290;33;33311;-79
2023/01/26 05:29:53;;;;;;;16.27;9.75;;;;;;;11.03;47.34;100429.34;4257860;33;33831;-80
2023/01/26 05:32:21;;;;;;;16.98;10.23;;;;;;;11.11;47.19;100424.56;4246872;33;34742;-82
2023/01/26 05:34:49;;;;;;;18.10;10.43;;;;;;;11.13;47.04;100431.59;4259799;33;34867;-78
2023/01/26 05:37:17;;;;;;;19.05;10.32;;;;;;;10.84;47.53;100421.41;4260327;33;32016;-83
2023/01/26 05:39:45;;;;;;;23.12;10.93;;;;;;;10.82;47.82;100429.97;4244974;33;34477;-79
2023/01/26 05:42:13;;;;;;;23.15;11.95;;;;;;;10.55;48.37;100431.06;4259155;33;34237;-79
2023/01/26 05:44:42;;;;;;;20.08;10.35;;;;;;;10.40;48.73;100426.81;4254690;33;33995;-78
2023/01/26 05:47:09;;;;;;;21.37;11.45;;;;;;;10.35;49.05;100430.88;4259410;33;33019;-79
2023/01/26 05:49:40;;;;;;;22.40;12.20;;;;;;;10.55;48.69;100429.38;4260391;33;34712;-82
2023/01/26 05:52:13;;;;;;;20.67;11.30;;;;;;;10.52;48.72;100434.38;4259955;33;33984;-81
2023/01/26 05:54:42;;;;;;;19.52;11.75;;;;;;;10.46;48.94;100428.84;4260268;33;33817;-80
2023/01/26 05:57:10;;;;;;;22.77;11.93;;;;;;;10.40;49.03;100434.56;4259338;33;33867;-82
2023/01/26 05:59:38;;;;;;;19.00;10.88;;;;;;;10.36;49.12;100435.22;4259772;33;34509;-82
2023/01/26 06:02:06;;;;;;;21.85;11.98;;;;;;;10.70;48.27;100439.69;4246678;33;33502;-79
2023/01/26 06:04:35;;;;;;;26.80;13.35;;;;;;;10.45;48.85;100436.53;4258971;33;33613;-80
2023/01/26 06:07:02;;;;;;;22.83;12.80;;;;;;;10.21;49.35;100436.91;4259973;33;33264;-80
2023/01/26 06:09:30;;;;;;;20.92;12.48;;;;;;;10.76;47.95;100439.12;4259806;33;34425;-80
2023/01/26 06:11:59;;;;;;;22.17;12.13;;;;;;;10.79;47.89;100429.78;4259418;33;35239;-80
2023/01/26 06:14:27;;;;;;;21.95;12.45;;;;;;;10.82;47.72;100436.84;4246810;33;33989;-82
2023/01/26 06:16:55;;;;;;;20.37;11.38;;;;;;;10.79;47.79;100429.78;4259646;33;33850;-81
2023/01/26 06:19:24;;;;;;;22.17;11.55;;;;;;;10.98;47.39;100430.78;4259407;33;34065;-82
2023/01/26 06:21:52;;;;;;;21.58;11.68;;;;;;;10.91;47.29;100434.72;4259032;33;33602;-80
2023/01/26 06:24:20;;;;;;;19.58;11.48;;;;;;;10.74;47.83;100436.44;4259497;33;33860;-80
2023/01/26 06:26:49;;;;;;;22.05;12.18;;;;;;;10.58;47.95;100426.03;4258359;33;33374;-82
2023/01/26 06:29:17;;;;;;;21.02;11.60;;;;;;;10.95;46.90;100436.72;4261573;33;34825;-84
2023/01/26 06:31:44;;;;;;;20.95;11.25;;;;;;;10.95;46.79;100433.19;4258515;33;33897;-81
2023/01/26 06:34:12;;;;;;;21.70;11.00;;;;;;;10.48;47.84;100431.53;4258442;33;32993;-80
2023/01/26 06:36:40;;;;;;;23.42;11.45;;;;;;;10.48;47.77;100426.34;4259974;33;33565;-79
2023/01/26 06:39:09;;;;;;;20.52;11.65;;;;;;;10.54;47.54;100426.69;4260861;33;33996;-79
2023/01/26 06:41:37;;;;;;;19.70;11.60;;;;;;;10.43;47.84;100427.00;4247670;33;33471;-78
2023/01/26 06:44:05;;;;;;;20.73;11.07;;;;;;;10.56;47.54;100427.66;4247811;33;34473;-78
2023/01/26 06:46:33;;;;;;;19.55;10.65;;;;;;;10.36;48.08;100422.28;4259860;33;34173;-81
2023/01/26 06:49:02;;;;;;;19.65;10.52;;;;;;;10.47;47.80;100424.56;4261021;33;34654;-78
2023/01/26 06:51:45;;;;;;;22.27;11.55;;;;;;;10.97;46.52;100418.62;4261288;33;33460;-80
2023/01/26 06:54:14;;;;;;;20.55;10.10;;;;;;;10.54;47.41;100418.91;4258895;33;34590;-79
2023/01/26 06:56:42;;;;;;;18.30;10.25;;;;;;;10.79;46.48;100419.41;4261094;33;34168;-80
2023/01/26 06:59:10;;;;;;;23.12;11.38;;;;;;;10.12;48.22;100415.69;4255649;33;34038;-79
2023/01/26 07:01:40;;;;;;;20.48;10.90;;;;;;;10.26;47.92;100419.94;4260510;33;33690;-83
2023/01/26 07:04:08;;;;;;;21.30;10.32;;;;;;;10.31;47.72;100412.47;4247354;33;33268;-80
2023/01/26 07:06:36;;;;;;;17.98;10.43;;;;;;;10.57;46.87;100416.50;4260235;33;33422;-78
2023/01/26 07:09:04;;;;;;;20.02;9.57;;;;;;;10.36;47.31;100422.28;4260905;33;34497;-82
2023/01/26 07:11:31;;;;;;;17.67;9.43;;;;;;;9.74;48.67;100417.00;4254311;33;105999;-77
2023/01/26 07:13:59;;;;;;;17.20;8.88;;;;;;;10.31;47.39;100415.06;4260297;33;34276;-81
2023/01/26 07:16:27;;;;;;;18.65;9.32;;;;;;;10.30;47.40;100414.16;4260470;33;33598;-78
2023/01/26 07:18:54;;;;;;;16.33;9.40;;;;;;;10.46;46.92;100413.31;4260575;33;33918;-81
2023/01/26 07:21:22;;;;;;;20.27;9.77;;;;;;;10.53;46.66;100414.56;4259745;33;33838;-80
2023/01/26 07:23:52;;;;;;;19.27;9.70;;;;;;;10.49;46.77;100412.56;4261280;33;34198;-82
2023/01/26 07:26:20;;;;;;;18.90;9.27;;;;;;;10.38;46.79;100412.88;4259603;33;34749;-82
2023/01/26 07:28:47;;;;;;;18.33;9.70;;;;;;;10.27;46.97;100406.19;4252937;33;33910;-81
2023/01/26 07:31:15;;;;;;;15.05;8.30;;;;;;;10.29;46.89;100406.28;4260214;33;33497;-80
2023/01/26 07:33:43;;;;;;;19.45;9.68;;;;;;;10.45;46.74;100405.44;4261020;33;34556;-81
2023/01/26 07:36:11;;;;;;;20.27;9.70;;;;;;;10.34;47.03;100408.34;4258912;33;34173;-84
2023/01/26 07:38:39;;;;;;;16.80;9.65;;;;;;;10.50;46.64;100404.00;4246974;33;32759;-80
2023/01/26 07:41:10;;;;;;;17.37;9.02;;;;;;;10.44;46.68;100394.22;4259885;33;32937;-78
2023/01/26 07:43:38;;;;;;;15.20;9.10;;;;;;;9.90;47.62;100403.22;4259329;33;32961;-79
2023/01/26 07:46:09;;;;;;;16.95;8.95;;;;;;;9.68;48.15;100396.84;4259823;33;33495;-77
2023/01/26 07:48:37;;;;;;;17.23;8.93;;;;;;;9.36;48.69;100402.69;4247036;33;34741;-78
2023/01/26 07:51:05;;;;;;;19.65;9.63;;;;;;;9.47;48.51;100403.34;4251947;33;33284;-82
2023/01/26 07:53:38;;;;;;;18.17;9.02;;;;;;;8.84;50.12;100408.19;4247133;33;33712;-81
2023/01/26 07:56:11;;;;;;;15.75;9.38;;;;;;;8.65;51.06;100403.59;4248238;33;33513;-78
2023/01/26 07:58:39;;;;;;;19.08;9.68;;;;;;;8.50;52.02;100408.72;4260479;33;33996;-81
2023/01/26 08:01:12;;;;;;;17.85;8.85;;;;;;;8.95;50.60;100408.88;4259057;33;33914;-82
2023/01/26 08:03:40;;;;;;;17.27;9.02;;;;;;;9.12;50.13;100403.03;4246993;33;33504;-79
2023/01/26 08:06:08;;;;;;;14.85;8.63;;;;;;;9.91;48.13;100395.56;4259955;33;33746;-82
2023/01/26 08:08:42;;;;;;;17.75;9.40;;;;;;;9.97;48.21;100395.91;4257581;33;35017;-81
2023/01/26 08:11:10;;;;;;;16.85;8.98;;;;;;;10.10;47.66;100397.50;4258818;33;34529;-80
2023/01/26 08:13:37;;;;;;;15.70;8.50;;;;;;;10.31;46.93;100408.16;4247068;33;34331;-79
2023/01/26 08:16:09;;;;;;;17.20;9.60;;;;;;;10.48;46.36;100405.63;4259435;33;33636;-79
2023/01/26 08:18:38;;;;;;;15.50;8.90;;;;;;;10.06;47.23;100399.81;4259778;33;35328;-79
2023/01/26 08:21:06;;;;;;;17.52;9.00;;;;;;;10.45;46.53;100400.28;4260497;33;33852;-80
2023/01/26 08:23:33;;;;;;;16.67;9.02;;;;;;;10.55;46.07;100395.69;4259758;33;33927;-82
2023/01/26 08:26:06;;;;;;;16.62;8.73;;;;;;;10.41;46.26;100389.75;4259547;33;34007;-83
2023/01/26 08:28:35;;;;;;;16.80;8.73;;;;;;;10.07;46.32;100386.97;4245528;33;33714;-82
2023/01/26 08:31:21;;;;;;;16.17;8.50;;;;;;;10.20;46.14;100391.12;4259110;33;34553;-80
2023/01/26 08:33:50;;;;;;;15.52;9.20;;;;;;;10.39;45.62;100390.47;4260188;33;33700;-78
2023/01/26 08:36:18;;;;;;;21.27;9.98;;;;;;;10.47;45.86;100398.66;4260166;33;33503;-84
2023/01/26 08:38:50;;;;;;;19.37;9.88;;;;;;;10.42;46.06;100395.81;4261530;33;34554;-82
2023/01/26 08:41:18;;;;;;;15.90;9.70;;;;;;;10.77;45.26;100396.84;4255970;33;33631;-81
2023/01/26 08:43:45;;;;;;;16.25;9.18;;;;;;;10.84;45.14;100395.47;4256977;33;33677;-82
2023/01/26 08:46:13;;;;;;;17.85;9.27;;;;;;;10.41;45.73;100394.94;4259748;33;33202;-81
2023/01/26 08:48:41;;;;;;;18.27;10.23;;;;;;;10.84;44.70;100398.06;4259496;33;34257;-83
2023/01/26 08:51:08;;;;;;;18.25;10.25;;;;;;;10.78;44.63;100394.34;4260277;33;34461;-78
2023/01/26 08:53:36;;;;;;;17.25;9.32;;;;;;;10.59;45.29;100400.22;4256797;33;34749;-78
2023/01/26 08:56:06;;;;;;;16.73;8.15;;;;;;;10.08;46.66;100393.03;4259491;33;33566;-81
2023/01/26 08:58:34;;;;;;;20.77;9.82;;;;;;;9.81;46.96;100393.25;4245880;33;33937;-82
2023/01/26 09:01:07;;;;;;;16.25;9.52;;;;;;;9.94;46.64;100398.31;4245045;33;34461;-82
2023/01/26 09:03:35;;;;;;;19.15;9.25;;;;;;;10.29;45.41;100394.22;4259301;33;33401;-80
2023/01/26 09:06:04;;;;;;;17.10;8.75;;;;;;;10.03;45.69;100391.06;4258411;33;33349;-79
2023/01/26 09:08:32;;;;;;;18.83;9.40;;;;;;;10.35;44.86;100394.59;4246278;33;34351;-80
2023/01/26 09:11:00;;;;;;;17.90;8.45;;;;;;;10.21;44.92;100393.78;4259301;33;33946;-80
2023/01/26 09:13:27;;;;;;;16.17;8.82;;;;;;;10.47;44.50;100393.47;4260072;33;33598;-80
2023/01/26 09:15:55;;;;;;;17.58;9.93;;;;;;;10.02;45.55;100393.56;4260372;33;33466;-80
2023/01/26 09:18:22;;;;;;;20.58;10.15;;;;;;;10.13;45.32;100392.47;4259467;33;34449;-78
2023/01/26 09:20:50;;;;;;;15.35;8.50;;;;;;;10.30;45.07;100396.03;4260208;33;33492;-81
2023/01/26 09:23:19;;;;;;;14.27;8.35;;;;;;;10.11;45.70;100398.38;4259871;33;33766;-81
2023/01/26 09:25:52;;;;;;;14.77;7.82;;;;;;;10.12;45.04;100389.78;4260125;33;33457;-83
2023/01/26 09:28:19;;;;;;;16.85;9.00;;;;;;;10.30;44.42;100388.28;4260161;33;33629;-82
2023/01/26 09:30:47;;;;;;;15.38;8.65;;;;;;;10.66;43.65;100391.06;4259093;33;34686;-81
2023/01/26 09:33:14;;;;;;;18.60;9.27;;;;;;;10.41;44.48;100394.03;4260074;33;34203;-78
2023/01/26 09:35:42;;;;;;;16.27;8.90;;;;;;;10.35;44.79;100389.44;4259690;33;33046;-82
2023/01/26 09:38:09;;;;;;;17.42;8.75;;;;;;;10.60;44.28;100390.75;4259670;33;32811;-80
2023/01/26 09:40:59;;;;;;;17.08;9.80;;;;;;;10.63;43.98;100381.44;4258547;33;33941;-80
2023/01/26 09:43:50;;;;;;;14.70;7.90;;;;;;;10.13;45.17;100386.41;4252081;33;32085;-79
2023/01/26 09:46:23;;;;;;;15.65;8.68;;;;;;;10.70;44.01;100382.69;4244803;33;33401;-81
2023/01/26 09:49:00;;;;;;;18.80;8.57;;;;;;;10.81;43.86;100384.12;4246757;33;33736;-81
2023/01/26 09:51:37;;;;;;;14.60;8.18;;;;;;;10.76;43.71;100375.22;4260199;33;33938;-81
2023/01/26 09:54:37;;;;;;;17.37;9.10;;;;;;;10.42;44.29;100363.03;4235098;33;33126;-80
2023/01/26 09:57:12;;;;;;;15.90;9.25;;;;;;;10.39;44.63;100370.66;4257691;33;33012;-76
2023/01/26 10:00:04;;;;;;;15.80;8.13;;;;;;;10.43;44.76;100371.72;4244158;33;33946;-80
2023/01/26 10:03:04;;;;;;;16.65;9.15;;;;;;;10.55;44.40;100367.19;4254656;33;33706;-80
2023/01/26 10:05:34;;;;;;;18.70;9.55;;;;;;;10.79;43.96;100357.22;4238365;33;33445;-80
2023/01/26 10:08:16;;;;;;;15.95;9.35;;;;;;;11.12;43.24;100341.66;4245246;33;32847;-82
2023/01/26 10:11:01;;;;;;;22.27;10.85;;;;;;;10.89;43.04;100342.16;4247914;33;33898;-80
2023/01/26 10:13:29;;;;;;;17.37;9.95;;;;;;;11.03;43.16;100346.38;4260296;33;33822;-79
2023/01/26 10:16:01;;;;;;;18.10;9.43;;;;;;;11.38;42.37;100335.19;4260881;33;33679;-77
2023/01/26 10:18:32;;;;;;;21.75;10.60;;;;;;;11.43;42.00;100332.81;4257274;33;34170;-79
2023/01/26 10:21:02;;;;;;;16.45;9.52;;;;;;;11.49;42.17;100327.97;4259325;33;34581;-80
2023/01/26 10:23:32;;;;;;;17.08;9.68;;;;;;;11.11;43.04;100328.63;4247649;33;33358;-80
2023/01/26 10:26:12;;;;;;;14.90;8.88;;;;;;;10.76;43.53;100331.19;4262240;33;34650;-78
2023/01/26 10:28:41;;;;;;;18.27;9.60;;;;;;;11.02;42.65;100314.34;4259529;33;33441;-79
2023/01/26 10:31:17;;;;;;;21.85;11.57;;;;;;;11.07;42.58;100317.22;4260238;33;34392;-79
2023/01/26 10:33:56;;;;;;;20.15;11.63;;;;;;;10.77;42.89;100312.22;4259111;33;33555;-78
2023/01/26 10:36:24;;;;;;;22.45;13.00;;;;;;;10.65;43.88;100310.69;4251901;33;33858;-79
2023/01/26 10:38:51;;;;;;;21.70;12.10;;;;;;;10.21;44.12;100307.47;4259897;33;33808;-80
2023/01/26 10:41:18;;;;;;;21.80;12.80;;;;;;;9.95;44.61;100309.53;4260043;33;33655;-80
2023/01/26 10:43:54;;;;;;;23.12;12.20;;;;;;;10.31;43.74;100307.19;4260656;33;33885;-80
2023/01/26 10:46:23;;;;;;;24.67;13.10;;;;;;;10.24;44.06;100302.47;4259762;33;33768;-78
2023/01/26 10:48:53;;;;;;;25.05;12.50;;;;;;;10.61;43.52;100299.28;4260108;33;33307;-79
2023/01/26 10:51:25;;;;;;;20.58;10.30;;;;;;;10.67;43.63;100289.22;4260106;33;32877;-81
2023/01/26 10:54:19;;;;;;;21.73;12.48;;;;;;;9.99;45.29;100295.94;4259170;33;34581;-80
2023/01/26 10:56:48;;;;;;;29.33;14.13;;;;;;;10.72;43.92;100302.41;4259913;33;33706;-79
2023/01/26 10:59:24;;;;;;;29.58;15.52;;;;;;;10.04;45.40;100298.78;4259638;33;33401;-80
2023/01/26 11:02:11;;;;;;;27.13;14.55;;;;;;;10.53;44.61;100301.47;4259012;33;34406;-81
2023/01/26 11:04:40;;;;;;;31.20;15.68;;;;;;;10.67;43.77;100293.53;4253697;33;34589;-82
2023/01/26 11:07:19;;;;;;;27.10;14.68;;;;;;;10.59;44.37;100291.41;4258153;33;33629;-79
2023/01/26 11:09:48;;;;;;;22.02;11.98;;;;;;;10.38;44.64;100286.00;4260405;33;33468;-77
2023/01/26 11:12:20;;;;;;;21.75;13.27;;;;;;;10.62;43.73;100282.91;4259428;33;33747;-83
2023/01/26 11:15:02;;;;;;;24.52;13.52;;;;;;;10.49;43.94;100273.63;4259820;33;34006;-79
2023/01/26 11:17:45;;;;;;;25.85;13.13;;;;;;;10.82;43.20;100277.06;4261218;33;34274;-80
2023/01/26 11:20:16;;;;;;;24.55;12.30;;;;;;;10.66;43.38;100277.06;4258990;33;34008;-81
2023/01/26 11:23:24;;;;;;;21.58;11.88;;;;;;;10.49;43.52;100267.53;4259523;33;34297;-82
2023/01/26 11:26:16;;;;;;;22.77;11.12;;;;;;;10.90;42.65;100261.03;4233297;33;34627;-82
2023/01/26 11:28:51;;;;;;;20.83;11.65;;;;;;;11.14;42.59;100251.88;4258887;33;34019;-79
2023/01/26 11:31:37;;;;;;;19.85;11.00;;;;;;;10.86;43.42;100253.91;4250248;33;33535;-82
2023/01/26 11:34:18;;;;;;;20.00;10.80;;;;;;;10.52;44.46;100262.53;4258729;33;34489;-82
2023/01/26 11:37:14;;;;;;;20.70;11.75;;;;;;;10.87;43.32;100255.69;4247608;33;33272;-78
2023/01/26 11:39:53;;;;;;;21.37;11.57;;;;;;;10.76;43.59;100257.75;4258754;33;34200;-80
2023/01/26 11:42:43;;;;;;;20.73;11.68;;;;;;;10.32;44.20;100264.97;4256248;33;33452;-80
2023/01/26 11:45:21;;;;;;;21.48;10.70;;;;;;;10.04;44.73;100247.94;4255153;33;34553;-80
2023/01/26 11:47:54;;;;;;;18.75;10.98;;;;;;;9.13;47.16;100246.25;4259426;33;33448;-82
2023/01/26 11:50:25;;;;;;;22.35;11.70;;;;;;;10.14;44.82;100253.56;4259565;33;33987;-80
2023/01/26 11:53:14;;;;;;;18.80;11.20;;;;;;;10.47;44.15;100244.16;4260445;33;33531;-80
2023/01/26 11:55:48;;;;;;;20.30;11.52;;;;;;;10.52;43.57;100232.31;4247673;33;33726;-81
2023/01/26 11:58:19;;;;;;;19.55;10.73;;;;;;;10.28;43.79;100234.50;4248920;33;33667;-80
2023/01/26 12:00:48;;;;;;;22.45;11.73;;;;;;;10.37;44.06;100232.44;4259421;33;33082;-79
2023/01/26 12:03:29;;;;;;;21.50;11.07;;;;;;;10.24;44.10;100230.84;4260355;33;33437;-78
2023/01/26 12:06:01;;;;;;;21.40;11.35;;;;;;;10.28;44.25;100216.37;4257673;33;34404;-78
2023/01/26 12:08:37;;;;;;;26.80;11.48;;;;;;;10.67;43.16;100211.50;4256924;33;33994;-82
2023/01/26 12:11:27;;;;;;;19.05;11.20;;;;;;;10.73;43.05;100196.25;4246222;33;33427;-80
2023/01/26 12:14:03;;;;;;;20.58;10.98;;;;;;;10.28;43.91;100195.66;4258363;33;33386;-81
2023/01/26 12:16:37;;;;;;;23.75;11.12;;;;;;;10.59;43.55;100194.69;4259740;33;34590;-77
2023/01/26 12:19:28;;;;;;;17.70;10.43;;;;;;;10.94;42.70;100191.25;4259378;33;34262;-79